Skip Navigation Links Skip Navigation Links

Current Weather

Lynn Lake, Man., Lynn Lake, Man.

For information only: do not use for flight planning or navigation.
Latest weather
Observation time Friday, May 25, 2018 7:00 AM CDT
Local time Friday, May 25, 2018 7:39 AM CDT
Flight conditions Marginal Visual Meteorological Conditions
Winds
Wind direction East (90°)
Wind speed 17 mph
Wind gusting to 23 mph
Visibility 9 mi.
Sky condition
Ceiling 1,100 ft. broken clouds
Cloud layer broken clouds 1,100 ft.
Cloud layer broken clouds 10,000 ft.
Temperature 39°F
Dewpoint 36°F
Altimeter 29.79 in.Hg
Derived measurements
Relative humidity 87%
Wind chill 30°F
Density altitude -718 ft.
Sea-level pressure 29.82 in.Hg
Remarks
Fully automated report.
METAR CYYL 251200Z AUTO 09015G20KT 9SM BKN011 BKN100 04/02 A2979 RMK SLP097

Settings

Location code

InnerDrive.Weather 4.0.6615.0 Release CLR 4.0.30319.42000
Copyright ©2018 Inner Drive Technology. All rights reserved. Portions Copyright ©1986-2018 David Braverman.

Find weather

Site navigation


Skip Navigation Links

Place info

Page info

PayPal - The safer, easier way to pay online!

Return home.

Copyright ©2018 Inner Drive Technology. Purveyors of fine, hand-crafted computer software. Page printed 2018-05-25T12:39:39 UTC.